Decoded Metar for LFKJ (AJACCIO in CORSE ISL.) (IATA:AJA) | Meteo·Mobile Aviation Weather
aviador You're here:

LFKJ Decoded Metar

AJACCIO in CORSE ISL.
Report Time2019-07-21 17:00:00
UTC Time2019-07-21 17:32:47
Flight Rules vfr VFR
Wind180° at 08 kt
W.Decomp.*RWY 20: 7.5 kt HW 2.9 kt LCW
Visibility9999 m
Phenomena:N/A
Clouds:N/A
Expected CloudBase > 4,000 ft AGL from Temp-Dew spread
CeilingNone
Temp30°C (ISA +15)
Dew Point20°C (55% RH)
Heat Index31.9°C
QNH1019 hPa
Density Alt1,864 ft
Elevation30 ft
Report Wrong Elevation
Raw Report
LFKJ 211700Z AUTO 18008KT CAVOK 30/20 Q1019 NOSIG=

Extra information for LFKJ:More info

Metar Taf Metar & Taf Last 4 Metars F.Rules Stats Wind Profile Meteogram Temp Stats Airport Information Weather charts Add Link Nearby VenuesMetar ALERT Operation Metar Decoded Social comments